createdAt,value
2022-08-12T00:00:50.700Z,20.28
2022-08-12T00:03:36.091Z,20.34
2022-08-12T00:06:23.834Z,20.37
2022-08-12T00:09:09.192Z,20.36
2022-08-12T00:11:55.025Z,20.17
2022-08-12T00:14:41.144Z,20.26
2022-08-12T00:17:27.023Z,20.30
2022-08-12T00:20:12.498Z,20.14
2022-08-12T00:23:00.201Z,20.16
2022-08-12T00:26:23.316Z,20.09
2022-08-12T00:29:01.314Z,20.15
2022-08-12T00:31:46.688Z,20.05
2022-08-12T00:34:32.531Z,20.07
2022-08-12T00:37:18.386Z,19.95
2022-08-12T00:40:11.578Z,20.24
2022-08-12T00:42:40.144Z,20.27
2022-08-12T00:45:08.821Z,20.13
2022-08-12T00:47:37.170Z,20.08
2022-08-12T00:50:06.490Z,20.01
2022-08-12T00:52:35.247Z,20.03
2022-08-12T00:55:06.245Z,20.05
2022-08-12T00:57:37.274Z,19.83
2022-08-12T01:00:09.462Z,19.89
2022-08-12T01:02:41.425Z,20.04
2022-08-12T01:05:29.250Z,20.04
2022-08-12T01:08:14.634Z,20.02
2022-08-12T01:11:02.838Z,19.90
2022-08-12T01:13:32.038Z,19.95
2022-08-12T01:16:02.707Z,19.94
2022-08-12T01:18:32.545Z,19.99
2022-08-12T01:21:08.284Z,19.92
2022-08-12T01:23:48.595Z,20.01
2022-08-12T01:26:20.965Z,20.01
2022-08-12T01:28:51.159Z,20.03
2022-08-12T01:31:20.303Z,20.03
2022-08-12T01:33:59.705Z,20.10
2022-08-12T01:36:29.213Z,20.20
2022-08-12T01:38:59.091Z,20.12
2022-08-12T01:41:31.470Z,20.06
2022-08-12T01:44:01.590Z,20.07
2022-08-12T01:46:40.599Z,20.08
2022-08-12T01:49:36.410Z,19.99
2022-08-12T01:52:20.308Z,19.90
2022-08-12T01:54:51.146Z,19.88
2022-08-12T01:57:58.195Z,19.88
2022-08-12T02:00:16.296Z,19.83
2022-08-12T02:02:47.312Z,19.77
2022-08-12T02:05:36.527Z,19.81
2022-08-12T02:08:36.011Z,19.81
2022-08-12T02:11:18.574Z,19.79
2022-08-12T02:14:23.225Z,19.74
2022-08-12T02:17:00.240Z,19.72
2022-08-12T02:19:40.421Z,19.70
2022-08-12T02:22:15.422Z,19.59
2022-08-12T02:24:43.754Z,19.63
2022-08-12T02:27:14.107Z,19.70
2022-08-12T02:29:42.392Z,19.59
2022-08-12T02:32:12.370Z,19.57
2022-08-12T02:34:40.297Z,19.40
2022-08-12T02:37:10.413Z,19.40
2022-08-12T02:39:38.389Z,19.39
2022-08-12T02:42:07.914Z,19.47
2022-08-12T02:44:40.162Z,19.39
2022-08-12T02:47:58.508Z,19.25
2022-08-12T02:49:59.495Z,19.25
2022-08-12T02:52:28.033Z,19.21
2022-08-12T02:55:01.447Z,19.32
2022-08-12T02:57:29.575Z,19.43
2022-08-12T02:59:57.659Z,19.39
2022-08-12T03:02:28.635Z,19.22
2022-08-12T03:04:58.774Z,19.19
2022-08-12T03:07:56.309Z,19.11
2022-08-12T03:10:36.842Z,19.08
2022-08-12T03:13:06.982Z,19.02
2022-08-12T03:15:35.602Z,19.02
2022-08-12T03:18:23.675Z,19.05
2022-08-12T03:20:56.679Z,18.98
2022-08-12T03:23:30.189Z,18.85
2022-08-12T03:26:02.630Z,18.96
2022-08-12T03:28:49.798Z,18.68
2022-08-12T03:31:18.498Z,18.80
2022-08-12T03:34:01.712Z,18.77
2022-08-12T03:36:35.415Z,18.72
2022-08-12T03:39:36.732Z,18.67
2022-08-12T03:42:21.877Z,18.52
2022-08-12T03:45:14.435Z,18.67
2022-08-12T03:48:03.203Z,18.59
2022-08-12T03:50:49.146Z,18.76
2022-08-12T03:53:41.166Z,18.58
2022-08-12T03:56:26.474Z,18.59
2022-08-12T03:59:15.445Z,18.52
2022-08-12T04:01:43.208Z,18.57
2022-08-12T04:04:11.555Z,18.53
2022-08-12T04:06:44.837Z,18.51
2022-08-12T04:09:16.491Z,18.38
2022-08-12T04:12:03.132Z,18.40
2022-08-12T04:14:30.734Z,18.31
2022-08-12T04:16:58.973Z,18.24
2022-08-12T04:19:27.109Z,18.23
2022-08-12T04:22:01.139Z,18.32
2022-08-12T04:24:35.220Z,18.37
2022-08-12T04:27:05.172Z,18.36
2022-08-12T04:30:29.704Z,18.31
2022-08-12T04:32:22.195Z,18.37
2022-08-12T04:34:50.255Z,18.49
2022-08-12T04:37:18.209Z,18.47
2022-08-12T04:39:47.713Z,18.51
2022-08-12T04:42:16.646Z,18.61
2022-08-12T04:44:45.212Z,18.44
2022-08-12T04:47:14.512Z,18.49
2022-08-12T04:49:42.343Z,18.47
2022-08-12T04:52:10.877Z,18.41
2022-08-12T04:54:38.839Z,18.47
2022-08-12T04:57:10.121Z,18.44
2022-08-12T04:59:46.732Z,18.39
2022-08-12T05:02:20.482Z,18.64
2022-08-12T05:04:50.806Z,18.72
2022-08-12T05:07:18.412Z,18.82
2022-08-12T05:09:59.079Z,18.93
2022-08-12T05:12:35.814Z,18.94
2022-08-12T05:15:16.795Z,18.98
2022-08-12T05:17:53.004Z,19.04
2022-08-12T05:20:22.827Z,19.07
2022-08-12T05:22:56.912Z,19.05
2022-08-12T05:25:25.906Z,19.23
2022-08-12T05:27:58.495Z,19.36
2022-08-12T05:30:27.290Z,19.42
2022-08-12T05:32:59.000Z,19.45
2022-08-12T05:35:27.924Z,19.51
2022-08-12T05:38:15.536Z,19.45
2022-08-12T05:40:43.136Z,19.61
2022-08-12T05:43:12.082Z,19.63
2022-08-12T05:45:44.348Z,19.85
2022-08-12T05:48:12.821Z,19.89
2022-08-12T05:50:40.601Z,19.91
2022-08-12T05:53:08.321Z,19.99
2022-08-12T05:55:36.790Z,20.09
2022-08-12T05:58:05.884Z,20.12
2022-08-12T06:00:35.846Z,20.09
2022-08-12T06:03:04.979Z,20.18
2022-08-12T06:05:54.291Z,20.32
2022-08-12T06:08:23.031Z,20.34
2022-08-12T06:10:51.218Z,20.43
2022-08-12T06:13:27.965Z,20.54
2022-08-12T06:16:10.106Z,20.73
2022-08-12T06:18:40.040Z,20.79
2022-08-12T06:21:08.411Z,20.88
2022-08-12T06:23:40.455Z,20.97
2022-08-12T06:26:11.586Z,21.05
2022-08-12T06:28:39.813Z,21.20
2022-08-12T06:31:25.318Z,21.43
2022-08-12T06:34:00.886Z,21.55
2022-08-12T06:36:43.126Z,21.60
2022-08-12T06:39:15.103Z,21.71
2022-08-12T06:42:04.860Z,21.89
2022-08-12T06:44:50.486Z,22.06
2022-08-12T06:47:21.964Z,22.31
2022-08-12T06:49:50.120Z,22.35
2022-08-12T06:52:21.586Z,22.57
2022-08-12T06:54:49.163Z,22.77
2022-08-12T06:58:07.981Z,22.86
2022-08-12T07:00:06.606Z,22.81
2022-08-12T07:02:37.191Z,23.01
2022-08-12T07:05:05.339Z,23.36
2022-08-12T07:07:33.107Z,23.28
2022-08-12T07:10:05.859Z,23.44
2022-08-12T07:12:34.981Z,23.72
2022-08-12T07:15:02.803Z,23.91
2022-08-12T07:17:36.436Z,24.06
2022-08-12T07:20:08.206Z,24.24
2022-08-12T07:22:36.099Z,23.96
2022-08-12T07:25:21.640Z,24.49
2022-08-12T07:27:54.453Z,24.70
2022-08-12T07:30:23.037Z,24.75
2022-08-12T07:32:51.699Z,25.02
2022-08-12T07:35:20.965Z,25.04
2022-08-12T07:37:50.465Z,25.22
2022-08-12T07:40:18.847Z,25.60
2022-08-12T07:42:46.736Z,25.34
2022-08-12T07:45:14.562Z,25.51
2022-08-12T07:47:43.475Z,25.90
2022-08-12T07:50:11.962Z,26.37
2022-08-12T07:52:43.395Z,26.95
2022-08-12T07:55:11.689Z,28.48
2022-08-12T07:57:49.841Z,29.27
2022-08-12T08:00:18.290Z,30.12
2022-08-12T08:02:45.990Z,29.87
2022-08-12T08:05:15.486Z,30.44
2022-08-12T08:07:44.475Z,31.23
2022-08-12T08:10:13.746Z,31.99
2022-08-12T08:12:56.233Z,31.77
2022-08-12T08:15:44.586Z,31.06
2022-08-12T08:18:18.412Z,29.91
2022-08-12T08:20:55.252Z,29.20
2022-08-12T08:23:46.555Z,28.80
2022-08-12T08:26:15.645Z,28.27
2022-08-12T08:28:43.580Z,27.83
2022-08-12T08:31:14.365Z,28.50
2022-08-12T08:34:04.885Z,28.59
2022-08-12T08:36:30.268Z,29.29
2022-08-12T08:38:59.375Z,29.74
2022-08-12T08:42:16.292Z,29.90
2022-08-12T08:44:32.405Z,29.34
2022-08-12T08:47:01.211Z,29.03
2022-08-12T08:49:29.167Z,28.94
2022-08-12T08:51:56.765Z,28.71
2022-08-12T08:54:26.018Z,28.91
2022-08-12T08:56:53.765Z,28.82
2022-08-12T08:59:22.628Z,29.33
2022-08-12T09:01:50.256Z,29.31
2022-08-12T09:05:07.916Z,29.13
2022-08-12T09:07:16.817Z,28.49
2022-08-12T09:12:55.023Z,27.73
2022-08-12T09:15:35.103Z,28.10
2022-08-12T09:18:05.868Z,28.55
2022-08-12T09:20:37.037Z,29.25
2022-08-12T09:23:07.840Z,29.93
2022-08-12T09:25:55.040Z,30.76
2022-08-12T09:28:31.356Z,31.27
2022-08-12T09:31:00.167Z,32.01
2022-08-12T09:34:26.571Z,32.41
2022-08-12T09:36:31.384Z,33.67
2022-08-12T09:40:06.397Z,34.28
2022-08-12T09:42:40.382Z,34.86
2022-08-12T09:45:24.038Z,35.87
2022-08-12T09:47:59.670Z,36.29
2022-08-12T09:50:27.994Z,36.91
2022-08-12T09:53:06.615Z,37.82
2022-08-12T09:56:01.288Z,39.20
2022-08-12T09:58:59.037Z,40.86
2022-08-12T10:01:25.244Z,41.88
2022-08-12T10:04:05.721Z,42.78
2022-08-12T10:06:36.190Z,43.19
2022-08-12T10:09:06.699Z,43.55
2022-08-12T10:12:12.288Z,44.56
2022-08-12T10:14:52.553Z,43.89
2022-08-12T10:17:23.447Z,43.79
2022-08-12T10:19:53.109Z,40.96
2022-08-12T10:22:39.844Z,39.64
2022-08-12T10:26:25.743Z,38.45
2022-08-12T10:28:32.736Z,36.98
2022-08-12T10:31:04.880Z,36.11
2022-08-12T10:33:33.629Z,35.29
2022-08-12T10:36:12.361Z,34.74
2022-08-12T10:38:41.374Z,34.19
2022-08-12T10:41:57.472Z,33.91
2022-08-12T10:44:17.786Z,33.72
2022-08-12T10:46:49.441Z,33.20
2022-08-12T10:50:02.438Z,32.89
2022-08-12T10:52:34.470Z,32.77
2022-08-12T10:54:56.300Z,32.63
2022-08-12T10:58:13.072Z,32.83
2022-08-12T11:00:34.449Z,32.80
2022-08-12T11:04:20.102Z,32.70
2022-08-12T11:07:02.399Z,31.66
2022-08-12T11:08:42.991Z,31.06
2022-08-12T11:11:13.719Z,31.45
2022-08-12T11:13:46.486Z,31.72
2022-08-12T11:16:21.771Z,31.95
2022-08-12T11:18:54.636Z,32.11
2022-08-12T11:21:57.191Z,32.11
2022-08-12T11:24:30.942Z,32.25
2022-08-12T11:27:00.319Z,32.33
2022-08-12T11:30:02.137Z,32.18
2022-08-12T11:32:16.600Z,31.93
2022-08-12T11:34:52.622Z,31.91
2022-08-12T11:37:26.172Z,32.15
2022-08-12T11:42:34.751Z,32.34
2022-08-12T11:45:03.529Z,32.48
2022-08-12T11:47:32.799Z,31.99
2022-08-12T11:50:01.770Z,32.00
2022-08-12T11:52:54.987Z,32.10
2022-08-12T11:55:17.182Z,32.42
2022-08-12T11:58:07.411Z,32.56
2022-08-12T12:03:44.059Z,32.82
2022-08-12T12:06:16.925Z,32.95
2022-08-12T12:08:50.422Z,33.04
2022-08-12T12:11:18.375Z,33.18
2022-08-12T12:14:06.394Z,32.51
2022-08-12T12:16:38.109Z,32.22
2022-08-12T12:19:08.786Z,32.04
2022-08-12T12:21:47.589Z,32.07
2022-08-12T12:24:20.842Z,31.92
2022-08-12T12:26:59.571Z,31.69
2022-08-12T12:30:18.218Z,31.36
2022-08-12T12:32:16.304Z,31.28
2022-08-12T12:35:18.179Z,31.07
2022-08-12T12:38:03.485Z,30.74
2022-08-12T12:40:20.559Z,30.75
2022-08-12T12:42:57.788Z,30.89
2022-08-12T12:45:28.982Z,31.13
2022-08-12T12:48:02.498Z,31.38
2022-08-12T12:50:35.600Z,31.72
2022-08-12T12:53:05.011Z,31.95
2022-08-12T12:55:35.905Z,32.20
2022-08-12T12:58:04.856Z,32.25
2022-08-12T13:00:33.548Z,32.11
2022-08-12T13:03:01.335Z,31.72
2022-08-12T13:08:28.617Z,30.78
2022-08-12T13:11:05.461Z,30.53
2022-08-12T13:14:07.202Z,30.08
2022-08-12T13:16:22.293Z,29.96
2022-08-12T13:18:53.053Z,29.77
2022-08-12T13:21:33.390Z,29.69
2022-08-12T13:24:09.707Z,29.58
2022-08-12T13:26:40.643Z,29.38
2022-08-12T13:29:11.482Z,29.41
2022-08-12T13:31:46.283Z,29.52
2022-08-12T13:34:34.860Z,29.63
2022-08-12T13:37:09.959Z,29.50
2022-08-12T13:39:39.571Z,29.48
2022-08-12T13:42:14.435Z,29.09
2022-08-12T13:44:42.534Z,28.99
2022-08-12T13:47:18.468Z,28.93
2022-08-12T13:49:54.993Z,28.90
2022-08-12T13:52:23.743Z,28.77
2022-08-12T13:54:56.192Z,28.83
2022-08-12T13:57:26.434Z,28.88
2022-08-12T13:59:55.463Z,29.02
2022-08-12T14:02:28.278Z,29.38
2022-08-12T14:04:56.973Z,29.45
2022-08-12T14:07:25.872Z,29.83
2022-08-12T14:10:16.021Z,30.14
2022-08-12T14:12:54.416Z,29.99
2022-08-12T14:15:35.661Z,29.85
2022-08-12T14:18:13.324Z,29.79
2022-08-12T14:20:41.729Z,30.02
2022-08-12T14:24:00.950Z,30.46
2022-08-12T14:26:01.787Z,30.85
2022-08-12T14:28:31.144Z,30.33
2022-08-12T14:31:01.677Z,30.68
2022-08-12T14:33:44.046Z,31.01
2022-08-12T14:36:13.031Z,31.92
2022-08-12T14:38:42.297Z,32.87
2022-08-12T14:41:17.795Z,30.32
2022-08-12T14:44:04.789Z,28.66
2022-08-12T14:46:35.747Z,27.53
2022-08-12T14:49:11.404Z,27.05
2022-08-12T14:53:15.411Z,26.59
2022-08-12T14:57:35.432Z,25.86
2022-08-12T15:00:34.588Z,25.64
2022-08-12T15:03:03.368Z,25.58
2022-08-12T15:06:05.240Z,25.61
2022-08-12T15:08:28.271Z,25.57
2022-08-12T15:10:56.846Z,25.53
2022-08-12T15:13:26.084Z,25.51
2022-08-12T15:15:56.325Z,25.47
2022-08-12T15:18:25.279Z,25.46
2022-08-12T15:20:54.566Z,25.41
2022-08-12T15:23:23.701Z,25.43
2022-08-12T15:25:59.825Z,25.45
2022-08-12T15:28:34.124Z,25.81
2022-08-12T15:31:02.461Z,26.28
2022-08-12T15:33:44.597Z,26.70
2022-08-12T15:36:13.849Z,27.12
2022-08-12T15:38:41.936Z,27.35
2022-08-12T15:41:11.569Z,27.48
2022-08-12T15:44:17.160Z,27.57
2022-08-12T15:46:32.589Z,27.75
2022-08-12T15:49:00.371Z,27.81
2022-08-12T15:51:57.521Z,27.94
2022-08-12T15:54:34.917Z,28.07
2022-08-12T15:57:07.663Z,28.16
2022-08-12T16:00:00.232Z,28.26
2022-08-12T16:02:27.282Z,28.32
2022-08-12T16:04:57.854Z,28.32
2022-08-12T16:07:39.509Z,28.19
2022-08-12T16:10:09.188Z,28.26
2022-08-12T16:12:43.323Z,28.50
2022-08-12T16:15:25.103Z,28.45
2022-08-12T16:18:19.152Z,28.42
2022-08-12T16:20:46.470Z,28.65
2022-08-12T16:23:26.211Z,28.88
2022-08-12T16:26:05.446Z,29.33
2022-08-12T16:28:34.685Z,31.44
2022-08-12T16:31:04.780Z,29.32
2022-08-12T16:33:36.089Z,28.34
2022-08-12T16:36:25.533Z,28.31
2022-08-12T16:38:53.318Z,27.72
2022-08-12T16:41:20.928Z,27.49
2022-08-12T16:43:48.803Z,27.36
2022-08-12T16:46:31.720Z,27.45
2022-08-12T16:49:04.174Z,27.22
2022-08-12T16:51:40.178Z,26.89
2022-08-12T16:54:12.759Z,26.70
2022-08-12T16:56:55.289Z,26.58
2022-08-12T16:59:53.000Z,26.47
2022-08-12T17:02:30.058Z,26.23
2022-08-12T17:05:04.494Z,26.10
2022-08-12T17:07:43.139Z,25.99
2022-08-12T17:10:18.225Z,25.81
2022-08-12T17:13:09.780Z,25.80
2022-08-12T17:15:57.762Z,25.57
2022-08-12T17:18:43.430Z,25.58
2022-08-12T17:21:20.266Z,25.53
2022-08-12T17:24:10.644Z,25.35
2022-08-12T17:26:44.909Z,25.35
2022-08-12T17:29:23.953Z,25.23
2022-08-12T17:32:02.954Z,25.23
2022-08-12T17:34:52.058Z,25.13
2022-08-12T17:37:19.817Z,25.11
2022-08-12T17:40:12.429Z,25.02
2022-08-12T17:42:37.872Z,25.01
2022-08-12T17:45:18.230Z,24.94
2022-08-12T17:48:04.605Z,24.83
2022-08-12T17:50:36.933Z,24.69
2022-08-12T17:53:08.142Z,24.65
2022-08-12T17:55:47.802Z,24.53
2022-08-12T17:58:16.600Z,24.47
2022-08-12T18:00:45.862Z,24.43
2022-08-12T18:04:04.664Z,24.36
2022-08-12T18:06:14.073Z,24.25
2022-08-12T18:08:54.491Z,24.18
2022-08-12T18:12:03.305Z,24.09
2022-08-12T18:14:27.981Z,24.01
2022-08-12T18:16:57.530Z,23.99
2022-08-12T18:20:04.297Z,23.97
2022-08-12T18:22:21.977Z,23.94
2022-08-12T18:25:04.150Z,23.87
2022-08-12T18:27:44.940Z,23.78
2022-08-12T18:30:20.390Z,23.75
2022-08-12T18:33:03.987Z,23.63
2022-08-12T18:35:46.835Z,23.57
2022-08-12T18:38:22.056Z,23.48
2022-08-12T18:41:09.647Z,23.38
2022-08-12T18:43:57.597Z,23.26
2022-08-12T18:46:29.843Z,23.13
2022-08-12T18:49:17.761Z,23.08
2022-08-12T18:51:55.674Z,22.95
2022-08-12T18:54:34.729Z,22.88
2022-08-12T18:57:07.041Z,22.87
2022-08-12T19:00:01.681Z,22.78
2022-08-12T19:02:42.954Z,22.64
2022-08-12T19:05:14.512Z,22.44
2022-08-12T19:07:58.081Z,22.29
2022-08-12T19:10:32.129Z,21.97
2022-08-12T19:13:23.373Z,22.12
2022-08-12T19:15:54.203Z,22.08
2022-08-12T19:18:24.319Z,21.93
2022-08-12T19:20:52.018Z,21.89
2022-08-12T19:23:21.402Z,21.69
2022-08-12T19:26:00.112Z,21.82
2022-08-12T19:28:35.238Z,21.81
2022-08-12T19:31:50.864Z,21.79
2022-08-12T19:37:17.092Z,21.68
2022-08-12T19:40:07.762Z,21.60
2022-08-12T19:42:34.254Z,21.42
2022-08-12T19:45:04.877Z,21.51
2022-08-12T19:47:38.783Z,21.53
2022-08-12T19:50:11.337Z,21.46
2022-08-12T19:52:40.812Z,21.23
2022-08-12T19:55:19.906Z,21.28
2022-08-12T19:58:01.767Z,21.24
2022-08-12T20:00:34.557Z,21.11
2022-08-12T20:03:04.405Z,21.01
2022-08-12T20:06:04.865Z,20.89
2022-08-12T20:08:31.361Z,21.09
2022-08-12T20:12:13.643Z,21.03
2022-08-12T20:14:00.682Z,21.18
2022-08-12T20:19:53.276Z,21.15
2022-08-12T20:22:23.298Z,21.23
2022-08-12T20:24:51.547Z,21.10
2022-08-12T20:27:29.613Z,21.05
2022-08-12T20:30:13.816Z,20.92
2022-08-12T20:32:47.539Z,20.80
2022-08-12T20:35:19.675Z,20.82
2022-08-12T20:38:06.885Z,20.84
2022-08-12T20:40:40.156Z,20.90
2022-08-12T20:43:08.503Z,20.88
2022-08-12T20:45:44.825Z,20.74
2022-08-12T20:48:21.565Z,20.81
2022-08-12T20:50:53.662Z,20.65
2022-08-12T20:53:33.150Z,20.47
2022-08-12T20:56:19.681Z,20.62
2022-08-12T20:58:47.387Z,20.45
2022-08-12T21:01:20.857Z,20.39
2022-08-12T21:04:11.647Z,20.37
2022-08-12T21:07:08.653Z,20.28
2022-08-12T21:09:41.862Z,20.16
2022-08-12T21:12:31.213Z,20.18
2022-08-12T21:15:17.400Z,20.23
2022-08-12T21:18:09.142Z,20.23
2022-08-12T21:20:46.567Z,20.17
2022-08-12T21:23:15.517Z,20.08
2022-08-12T21:25:51.144Z,20.02
2022-08-12T21:28:20.942Z,19.90
2022-08-12T21:31:10.898Z,20.04
2022-08-12T21:33:58.854Z,20.04
2022-08-12T21:36:34.825Z,20.11
2022-08-12T21:39:19.322Z,20.07
2022-08-12T21:41:50.941Z,20.01
2022-08-12T21:44:24.471Z,20.02
2022-08-12T21:47:12.007Z,20.09
2022-08-12T21:50:02.534Z,20.06
2022-08-12T21:52:34.498Z,20.01
2022-08-12T21:55:04.666Z,19.94
2022-08-12T21:57:50.883Z,19.91
2022-08-12T22:00:23.821Z,19.93
2022-08-12T22:03:17.211Z,19.90
2022-08-12T22:06:31.554Z,19.94
2022-08-12T22:09:15.365Z,19.92
2022-08-12T22:11:56.227Z,19.92
2022-08-12T22:14:26.939Z,19.83
2022-08-12T22:16:56.022Z,19.73
2022-08-12T22:19:24.010Z,19.71
2022-08-12T22:21:55.846Z,19.75
2022-08-12T22:24:26.510Z,19.59
2022-08-12T22:26:58.169Z,19.54
2022-08-12T22:29:43.424Z,19.59
2022-08-12T22:32:12.199Z,19.64
2022-08-12T22:34:40.104Z,19.62
2022-08-12T22:37:20.094Z,19.67
2022-08-12T22:39:49.048Z,19.56
2022-08-12T22:42:35.088Z,19.45
2022-08-12T22:45:22.986Z,19.43
2022-08-12T22:47:54.702Z,19.36
2022-08-12T22:50:27.334Z,19.43
2022-08-12T22:53:15.039Z,19.47
2022-08-12T22:55:59.285Z,19.38
2022-08-12T22:58:33.219Z,19.46
2022-08-12T23:01:02.181Z,19.45
2022-08-12T23:03:47.801Z,19.28
2022-08-12T23:06:20.058Z,19.22
2022-08-12T23:08:49.929Z,19.20
2022-08-12T23:11:23.920Z,19.13
2022-08-12T23:13:56.846Z,19.00
2022-08-12T23:16:31.096Z,19.10
2022-08-12T23:19:10.967Z,19.19
2022-08-12T23:22:06.331Z,19.12
2022-08-12T23:24:38.711Z,19.16
2022-08-12T23:27:43.966Z,19.05
2022-08-12T23:30:18.317Z,18.87
2022-08-12T23:32:54.612Z,19.02
2022-08-12T23:35:45.304Z,19.02
2022-08-12T23:38:28.994Z,18.91
2022-08-12T23:41:01.815Z,18.90
2022-08-12T23:43:39.498Z,18.84
2022-08-12T23:46:10.109Z,18.83
2022-08-12T23:48:38.339Z,18.90
2022-08-12T23:51:21.649Z,18.75
2022-08-12T23:53:51.013Z,18.71
2022-08-12T23:56:19.983Z,18.76
2022-08-12T23:58:49.634Z,18.73
